Albion, ID

2:20 PM MDT on October 01, 2014 (GMT -0600)
Land Creek | Change Station
CLOSE
Current Station
Personal Weather Station
Location: Burley, ID
Elevation: 4386 ft
Nearby Weather Stations

Elev 4386 ft 42.34 °N, 113.81 °W | Updated 52 seconds ago

Partly Cloudy
Partly Cloudy
54.1 °F
Feels Like 54.1 °F
N
8.5
Wind Variable Wind from WNW
Gusts 14.0 mph

Today
High -- | Low -- °F
--% Chance of Precip.
Yesterday
High -- | Low -- °F
Precip. -- in
7:31 AM 7:15 PM
Waxing Crescent, 50% visible
Pressure 29.89 in
Visibility 10.0 miles
Clouds Few 5500 ft
Dew Point 41 °F
Humidity 62%
Rainfall 0.01 in
Snow Depth 0 in , 1 in , 0 in
UV 6 out of 12
Pollen 5.70 out of 12
Air Quality Not available.
Flu Activity Not available.
METAR KBYI 301953Z AUTO 27016G23KT 10SM FEW055 14/06 A2995 RMK AO2 PK WND 27028/1907 SLP120 T01390061

More Conditions Fewer Conditions

Pressure 29.89 in
Visibility 10.0 miles
Clouds Few 5500 ft
Dew Point 41 °F
Humidity 62%
Rainfall 0.01 in
Snow Depth 0 in , 1 in , 0 in
UV 6 out of 12
Pollen 5.70 out of 12
Air Quality Not available.
Flu Activity Not available.
METAR KBYI 301953Z AUTO 27016G23KT 10SM FEW055 14/06 A2995 RMK AO2 PK WND 27028/1907 SLP120 T01390061

More Conditions Fewer Conditions

10-Day Weather Forecast

Almanac

Astronomy

Oct. 01, 2014 Rise Set
Actual Time 7:31 AM MDT 7:15 PM MDT
Civil Twilight 7:03 AM MDT 7:43 PM MDT
Nautical Twilight 6:30 AM MDT 8:16 PM MDT
Astronomical Twilight 5:57 AM MDT 8:48 PM MDT
Moon 2:40 PM MDT No Moon Set
Length of Visible Light 12h 40m
Length of Day
11h 44m
Tomorrow will be 2m 50s shorter.
Waxing Crescent, 50% of the Moon is Illuminated
Today
Waxing Crescent
Oct 8
Full
Oct 15
Last Quarter
Oct 23
New
Oct 30
First Quarter

Today's Extremes

State Highs State Lows

Community

WunderPhotos

Upload Photos

1,758,030 photos uploaded!

WunderBlogs® & News

By Dr. Jeff Masters
Director of Meteorology, Weather Underground
By Kari Strenfel
Meteorologist, Weather Underground
By Christopher C. Burt
Weather Historian, Weather Underground
October 1, 2014
October 1, 2014
October 1, 2014

Nearby

Air Quality

  Air Quality AQ Index Pollutant
Wednesday Good
PM2.5
Thursday Good
PM2.5

Snow Depth

Station Depth Elevation
Island Park 0 in 6290 ft
Savage Pass 1 in 6170 ft
Bear Basin 0 in 5350 ft
Galena 0 in 7440 ft
Secesh Summit 0 in 6520 ft

Earthquake Activity

City Distance Mag. Time & Date
No recent earthquake activity has been reported nearby.
Minimum magnitude displayed is 2.5.

Coastal Water Temperatures

Place Temperature
No Stations Reporting

Nearby Weather Stations